<?xml version='1.0' encoding='UTF-8'?><gpx version="1.1" creator="JPX - https://github.com/jenetics/jpx" xmlns="http://www.topografix.com/GPX/1/1"><trk><trkseg><trkpt lat="43.7780833" lon="11.2004933"><ele>40.0</ele><time>2026-04-03T15:57:25.919Z</time></trkpt><trkpt lat="43.7781667" lon="11.2004567"><ele>40.0</ele><time>2026-04-03T15:57:31.92Z</time></trkpt><trkpt lat="43.778225" lon="11.200565"><ele>40.0</ele><time>2026-04-03T15:57:41.907Z</time></trkpt><trkpt lat="43.7782883" lon="11.20062"><ele>40.0</ele><time>2026-04-03T15:57:45.908Z</time></trkpt><trkpt lat="43.778355" lon="11.2006583"><ele>40.0</ele><time>2026-04-03T15:57:53.907Z</time></trkpt><trkpt lat="43.7784283" lon="11.2007367"><ele>40.0</ele><time>2026-04-03T15:58:08.908Z</time></trkpt><trkpt lat="43.7784967" lon="11.200725"><ele>40.0</ele><time>2026-04-03T16:00:14.906Z</time></trkpt><trkpt lat="43.7785633" lon="11.2007167"><ele>40.0</ele><time>2026-04-03T16:00:18.906Z</time></trkpt><trkpt lat="43.778655" lon="11.2007817"><ele>40.0</ele><time>2026-04-03T16:00:21.907Z</time></trkpt><trkpt lat="43.7787133" lon="11.2008267"><ele>40.0</ele><time>2026-04-03T16:00:23.906Z</time></trkpt><trkpt lat="43.7787733" lon="11.200865"><ele>40.0</ele><time>2026-04-03T16:00:25.906Z</time></trkpt><trkpt lat="43.7788267" lon="11.2009317"><ele>40.0</ele><time>2026-04-03T16:00:27.907Z</time></trkpt><trkpt lat="43.7788867" lon="11.2009767"><ele>40.0</ele><time>2026-04-03T16:00:29.907Z</time></trkpt><trkpt lat="43.7789683" lon="11.201005"><ele>40.0</ele><time>2026-04-03T16:00:32.907Z</time></trkpt><trkpt lat="43.77904" lon="11.2010417"><ele>40.0</ele><time>2026-04-03T16:00:34.906Z</time></trkpt><trkpt lat="43.7791133" lon="11.2010517"><ele>40.0</ele><time>2026-04-03T16:00:36.907Z</time></trkpt><trkpt lat="43.7791833" lon="11.2010617"><ele>40.0</ele><time>2026-04-03T16:00:38.906Z</time></trkpt><trkpt lat="43.779255" lon="11.2010683"><ele>40.0</ele><time>2026-04-03T16:00:40.906Z</time></trkpt><trkpt lat="43.779325" lon="11.2011033"><ele>40.0</ele><time>2026-04-03T16:00:42.906Z</time></trkpt><trkpt lat="43.7793967" lon="11.20116"><ele>40.0</ele><time>2026-04-03T16:00:44.906Z</time></trkpt><trkpt lat="43.779465" lon="11.2012017"><ele>40.5</ele><time>2026-04-03T16:00:46.906Z</time></trkpt><trkpt lat="43.779535" lon="11.2012417"><ele>41.0</ele><time>2026-04-03T16:00:48.906Z</time></trkpt><trkpt lat="43.779605" lon="11.2012867"><ele>41.5</ele><time>2026-04-03T16:00:50.907Z</time></trkpt><trkpt lat="43.7796717" lon="11.2013167"><ele>42.0</ele><time>2026-04-03T16:00:52.906Z</time></trkpt><trkpt lat="43.7797433" lon="11.20139"><ele>42.5</ele><time>2026-04-03T16:00:55.906Z</time></trkpt><trkpt lat="43.779805" lon="11.2014283"><ele>43.0</ele><time>2026-04-03T16:00:58.907Z</time></trkpt><trkpt lat="43.7798833" lon="11.2014867"><ele>42.66666666666667</ele><time>2026-04-03T16:01:02.906Z</time></trkpt><trkpt lat="43.7799383" lon="11.20153"><ele>42.333333333333336</ele><time>2026-04-03T16:01:04.906Z</time></trkpt><trkpt lat="43.780015" lon="11.2015817"><ele>42.0</ele><time>2026-04-03T16:01:07.907Z</time></trkpt><trkpt lat="43.7800867" lon="11.2016083"><ele>41.666666666666664</ele><time>2026-04-03T16:01:14.907Z</time></trkpt><trkpt lat="43.78016" lon="11.2017017"><ele>41.33333333333333</ele><time>2026-04-03T16:01:17.906Z</time></trkpt><trkpt lat="43.7802333" lon="11.2017567"><ele>41.0</ele><time>2026-04-03T16:01:19.906Z</time></trkpt><trkpt lat="43.7803233" lon="11.2018033"><ele>40.666666666666664</ele><time>2026-04-03T16:01:21.906Z</time></trkpt><trkpt lat="43.780405" lon="11.2018483"><ele>40.33333333333333</ele><time>2026-04-03T16:01:23.907Z</time></trkpt><trkpt lat="43.7804767" lon="11.20189"><ele>40.0</ele><time>2026-04-03T16:01:25.907Z</time></trkpt><trkpt lat="43.7805383" lon="11.201925"><ele>39.666666666666664</ele><time>2026-04-03T16:01:27.906Z</time></trkpt><trkpt lat="43.7806067" lon="11.201955"><ele>39.333333333333336</ele><time>2026-04-03T16:01:29.906Z</time></trkpt><trkpt lat="43.7806767" lon="11.2019783"><ele>39.0</ele><time>2026-04-03T16:01:31.906Z</time></trkpt><trkpt lat="43.7807467" lon="11.20201"><ele>39.0</ele><time>2026-04-03T16:01:33.907Z</time></trkpt><trkpt lat="43.78082" lon="11.2020633"><ele>39.0</ele><time>2026-04-03T16:01:35.906Z</time></trkpt><trkpt lat="43.7808933" lon="11.2021117"><ele>39.0</ele><time>2026-04-03T16:01:37.906Z</time></trkpt><trkpt lat="43.7809683" lon="11.202165"><ele>39.0</ele><time>2026-04-03T16:01:39.906Z</time></trkpt><trkpt lat="43.7810467" lon="11.2022183"><ele>39.0</ele><time>2026-04-03T16:01:41.906Z</time></trkpt><trkpt lat="43.7811267" lon="11.20226"><ele>39.0</ele><time>2026-04-03T16:01:43.907Z</time></trkpt><trkpt lat="43.7812117" lon="11.2023017"><ele>39.0</ele><time>2026-04-03T16:01:45.906Z</time></trkpt><trkpt lat="43.7812967" lon="11.20234"><ele>39.0</ele><time>2026-04-03T16:01:47.906Z</time></trkpt><trkpt lat="43.7813817" lon="11.2023817"><ele>39.0</ele><time>2026-04-03T16:01:49.907Z</time></trkpt><trkpt lat="43.7814633" lon="11.202435"><ele>39.0</ele><time>2026-04-03T16:01:51.907Z</time></trkpt><trkpt lat="43.7815417" lon="11.2025067"><ele>39.0</ele><time>2026-04-03T16:01:53.907Z</time></trkpt><trkpt lat="43.781635" lon="11.2025667"><ele>39.0</ele><time>2026-04-03T16:01:55.906Z</time></trkpt><trkpt lat="43.7817283" lon="11.2026217"><ele>39.0</ele><time>2026-04-03T16:01:57.906Z</time></trkpt><trkpt lat="43.7818367" lon="11.2026483"><ele>39.0</ele><time>2026-04-03T16:01:59.907Z</time></trkpt><trkpt lat="43.7819317" lon="11.202675"><ele>39.0</ele><time>2026-04-03T16:02:01.906Z</time></trkpt><trkpt lat="43.7820167" lon="11.2027217"><ele>39.0</ele><time>2026-04-03T16:02:03.907Z</time></trkpt><trkpt lat="43.7820883" lon="11.202765"><ele>38.833333333333336</ele><time>2026-04-03T16:02:05.906Z</time></trkpt><trkpt lat="43.78217" lon="11.20282"><ele>38.666666666666664</ele><time>2026-04-03T16:02:08.906Z</time></trkpt><trkpt lat="43.7822267" lon="11.20289"><ele>38.5</ele><time>2026-04-03T16:02:11.906Z</time></trkpt><trkpt lat="43.782225" lon="11.2030067"><ele>38.33333333333333</ele><time>2026-04-03T16:02:15.906Z</time></trkpt><trkpt lat="43.7822067" lon="11.2030917"><ele>38.166666666666664</ele><time>2026-04-03T16:02:17.906Z</time></trkpt><trkpt lat="43.7821817" lon="11.2031867"><ele>38.0</ele><time>2026-04-03T16:02:19.906Z</time></trkpt><trkpt lat="43.7821733" lon="11.2032833"><ele>38.0</ele><time>2026-04-03T16:02:21.906Z</time></trkpt><trkpt lat="43.7821517" lon="11.2033833"><ele>38.0</ele><time>2026-04-03T16:02:23.906Z</time></trkpt><trkpt lat="43.782135" lon="11.20348"><ele>38.0</ele><time>2026-04-03T16:02:25.906Z</time></trkpt><trkpt lat="43.7821217" lon="11.2036067"><ele>38.0</ele><time>2026-04-03T16:02:28.906Z</time></trkpt><trkpt lat="43.7821317" lon="11.2037217"><ele>38.0</ele><time>2026-04-03T16:02:32.906Z</time></trkpt><trkpt lat="43.7821267" lon="11.203815"><ele>38.0</ele><time>2026-04-03T16:02:34.906Z</time></trkpt><trkpt lat="43.7821067" lon="11.203935"><ele>38.199999999999996</ele><time>2026-04-03T16:02:36.906Z</time></trkpt><trkpt lat="43.78209" lon="11.20406"><ele>38.4</ele><time>2026-04-03T16:02:38.906Z</time></trkpt><trkpt lat="43.782085" lon="11.204185"><ele>38.599999999999994</ele><time>2026-04-03T16:02:40.907Z</time></trkpt><trkpt lat="43.782075" lon="11.2043233"><ele>38.8</ele><time>2026-04-03T16:02:42.907Z</time></trkpt><trkpt lat="43.7820683" lon="11.2044567"><ele>39.0</ele><time>2026-04-03T16:02:44.906Z</time></trkpt><trkpt lat="43.7820667" lon="11.2045883"><ele>39.0</ele><time>2026-04-03T16:02:46.906Z</time></trkpt><trkpt lat="43.7820617" lon="11.2046783"><ele>39.0</ele><time>2026-04-03T16:02:48.906Z</time></trkpt><trkpt lat="43.7820783" lon="11.2047667"><ele>39.0</ele><time>2026-04-03T16:02:52.906Z</time></trkpt><trkpt lat="43.7821267" lon="11.2046883"><ele>39.0</ele><time>2026-04-03T16:02:55.906Z</time></trkpt><trkpt lat="43.7821517" lon="11.2045783"><ele>39.0</ele><time>2026-04-03T16:02:57.906Z</time></trkpt><trkpt lat="43.7821583" lon="11.2044533"><ele>39.0</ele><time>2026-04-03T16:02:59.906Z</time></trkpt><trkpt lat="43.7821633" lon="11.20432"><ele>39.0</ele><time>2026-04-03T16:03:01.907Z</time></trkpt><trkpt lat="43.78218" lon="11.204195"><ele>39.0</ele><time>2026-04-03T16:03:03.906Z</time></trkpt><trkpt lat="43.7822067" lon="11.2040833"><ele>39.0</ele><time>2026-04-03T16:03:05.906Z</time></trkpt><trkpt lat="43.7822533" lon="11.2039867"><ele>39.0</ele><time>2026-04-03T16:03:07.906Z</time></trkpt><trkpt lat="43.78231" lon="11.20391"><ele>39.0</ele><time>2026-04-03T16:03:09.907Z</time></trkpt><trkpt lat="43.78238" lon="11.2038967"><ele>39.0</ele><time>2026-04-03T16:03:11.906Z</time></trkpt><trkpt lat="43.7824567" lon="11.2039233"><ele>39.0</ele><time>2026-04-03T16:03:13.906Z</time></trkpt><trkpt lat="43.7825333" lon="11.20395"><ele>39.0</ele><time>2026-04-03T16:03:15.906Z</time></trkpt><trkpt lat="43.7826233" lon="11.2039967"><ele>39.0</ele><time>2026-04-03T16:03:17.906Z</time></trkpt><trkpt lat="43.7827067" lon="11.2040467"><ele>39.0</ele><time>2026-04-03T16:03:19.906Z</time></trkpt><trkpt lat="43.7827967" lon="11.2040867"><ele>39.0</ele><time>2026-04-03T16:03:21.906Z</time></trkpt><trkpt lat="43.782885" lon="11.20412"><ele>39.2</ele><time>2026-04-03T16:03:23.906Z</time></trkpt><trkpt lat="43.7829767" lon="11.2041533"><ele>39.4</ele><time>2026-04-03T16:03:25.906Z</time></trkpt><trkpt lat="43.7830683" lon="11.204195"><ele>39.6</ele><time>2026-04-03T16:03:27.906Z</time></trkpt><trkpt lat="43.78317" lon="11.204225"><ele>39.8</ele><time>2026-04-03T16:03:29.906Z</time></trkpt><trkpt lat="43.7832483" lon="11.2042533"><ele>40.0</ele><time>2026-04-03T16:03:31.906Z</time></trkpt><trkpt lat="43.7833267" lon="11.204295"><ele>40.0</ele><time>2026-04-03T16:03:33.906Z</time></trkpt><trkpt lat="43.78341" lon="11.2043417"><ele>40.0</ele><time>2026-04-03T16:03:35.907Z</time></trkpt><trkpt lat="43.7834967" lon="11.2043783"><ele>40.0</ele><time>2026-04-03T16:03:37.907Z</time></trkpt><trkpt lat="43.7836" lon="11.20441"><ele>40.0</ele><time>2026-04-03T16:03:39.906Z</time></trkpt><trkpt lat="43.7836867" lon="11.20443"><ele>40.0</ele><time>2026-04-03T16:03:41.906Z</time></trkpt><trkpt lat="43.783775" lon="11.2044333"><ele>40.0</ele><time>2026-04-03T16:03:43.906Z</time></trkpt><trkpt lat="43.78384" lon="11.20444"><ele>40.0</ele><time>2026-04-03T16:03:45.906Z</time></trkpt><trkpt lat="43.783905" lon="11.204465"><ele>40.0</ele><time>2026-04-03T16:03:47.906Z</time></trkpt><trkpt lat="43.7839983" lon="11.2044917"><ele>40.0</ele><time>2026-04-03T16:03:50.906Z</time></trkpt><trkpt lat="43.7840683" lon="11.2045283"><ele>40.0</ele><time>2026-04-03T16:03:52.906Z</time></trkpt><trkpt lat="43.7841433" lon="11.2045667"><ele>40.0</ele><time>2026-04-03T16:03:54.906Z</time></trkpt><trkpt lat="43.78422" lon="11.20459"><ele>40.0</ele><time>2026-04-03T16:03:56.906Z</time></trkpt><trkpt lat="43.7842983" lon="11.20463"><ele>40.0</ele><time>2026-04-03T16:03:58.907Z</time></trkpt><trkpt lat="43.7843767" lon="11.20466"><ele>40.0</ele><time>2026-04-03T16:04:00.906Z</time></trkpt><trkpt lat="43.7844483" lon="11.2046833"><ele>40.0</ele><time>2026-04-03T16:04:02.906Z</time></trkpt><trkpt lat="43.7845417" lon="11.2047133"><ele>40.0</ele><time>2026-04-03T16:04:04.906Z</time></trkpt><trkpt lat="43.7846317" lon="11.2047467"><ele>40.0</ele><time>2026-04-03T16:04:06.907Z</time></trkpt><trkpt lat="43.7847067" lon="11.204785"><ele>40.0</ele><time>2026-04-03T16:04:08.906Z</time></trkpt><trkpt lat="43.7847817" lon="11.2048183"><ele>40.0</ele><time>2026-04-03T16:04:10.906Z</time></trkpt><trkpt lat="43.784875" lon="11.20485"><ele>40.0</ele><time>2026-04-03T16:04:12.906Z</time></trkpt><trkpt lat="43.784955" lon="11.204885"><ele>40.0</ele><time>2026-04-03T16:04:14.906Z</time></trkpt><trkpt lat="43.785015" lon="11.2049267"><ele>40.0</ele><time>2026-04-03T16:04:16.906Z</time></trkpt><trkpt lat="43.7850517" lon="11.205025"><ele>40.0</ele><time>2026-04-03T16:04:19.907Z</time></trkpt><trkpt lat="43.7850317" lon="11.2051367"><ele>40.0</ele><time>2026-04-03T16:04:22.906Z</time></trkpt><trkpt lat="43.7849867" lon="11.2052433"><ele>40.0</ele><time>2026-04-03T16:04:25.906Z</time></trkpt><trkpt lat="43.7849517" lon="11.2053167"><ele>40.0</ele><time>2026-04-03T16:04:27.906Z</time></trkpt><trkpt lat="43.7849117" lon="11.2053967"><ele>40.0</ele><time>2026-04-03T16:04:29.906Z</time></trkpt><trkpt lat="43.7848683" lon="11.2054833"><ele>40.0</ele><time>2026-04-03T16:04:31.907Z</time></trkpt><trkpt lat="43.7848217" lon="11.205595"><ele>40.0</ele><time>2026-04-03T16:04:33.906Z</time></trkpt><trkpt lat="43.7847783" lon="11.2057017"><ele>40.0</ele><time>2026-04-03T16:04:35.906Z</time></trkpt><trkpt lat="43.784735" lon="11.20581"><ele>40.0</ele><time>2026-04-03T16:04:37.906Z</time></trkpt><trkpt lat="43.7846817" lon="11.2059083"><ele>40.0</ele><time>2026-04-03T16:04:39.907Z</time></trkpt><trkpt lat="43.7846333" lon="11.2060183"><ele>40.0</ele><time>2026-04-03T16:04:41.906Z</time></trkpt><trkpt lat="43.7845833" lon="11.2061283"><ele>40.0</ele><time>2026-04-03T16:04:43.906Z</time></trkpt><trkpt lat="43.7845267" lon="11.20623"><ele>40.0</ele><time>2026-04-03T16:04:45.906Z</time></trkpt><trkpt lat="43.784475" lon="11.20634"><ele>40.0</ele><time>2026-04-03T16:04:47.906Z</time></trkpt><trkpt lat="43.78443" lon="11.2064517"><ele>40.0</ele><time>2026-04-03T16:04:49.906Z</time></trkpt><trkpt lat="43.7843833" lon="11.2065633"><ele>40.0</ele><time>2026-04-03T16:04:51.906Z</time></trkpt><trkpt lat="43.7843217" lon="11.2066583"><ele>40.0</ele><time>2026-04-03T16:04:53.906Z</time></trkpt><trkpt lat="43.7842683" lon="11.2067633"><ele>40.0</ele><time>2026-04-03T16:04:55.906Z</time></trkpt><trkpt lat="43.7842167" lon="11.2068667"><ele>40.0</ele><time>2026-04-03T16:04:57.906Z</time></trkpt><trkpt lat="43.7841517" lon="11.20699"><ele>40.0</ele><time>2026-04-03T16:04:59.906Z</time></trkpt><trkpt lat="43.784095" lon="11.2071017"><ele>40.0</ele><time>2026-04-03T16:05:01.907Z</time></trkpt><trkpt lat="43.7840417" lon="11.2072083"><ele>40.0</ele><time>2026-04-03T16:05:03.906Z</time></trkpt><trkpt lat="43.7839933" lon="11.2073167"><ele>39.66666666666667</ele><time>2026-04-03T16:05:05.906Z</time></trkpt><trkpt lat="43.78394" lon="11.2074233"><ele>39.333333333333336</ele><time>2026-04-03T16:05:07.906Z</time></trkpt><trkpt lat="43.7839" lon="11.2075267"><ele>39.0</ele><time>2026-04-03T16:05:09.906Z</time></trkpt><trkpt lat="43.7838567" lon="11.20763"><ele>38.666666666666664</ele><time>2026-04-03T16:05:11.907Z</time></trkpt><trkpt lat="43.783805" lon="11.2077217"><ele>38.33333333333333</ele><time>2026-04-03T16:05:13.906Z</time></trkpt><trkpt lat="43.7837633" lon="11.20783"><ele>38.0</ele><time>2026-04-03T16:05:15.906Z</time></trkpt><trkpt lat="43.7837117" lon="11.2079233"><ele>38.0</ele><time>2026-04-03T16:05:17.906Z</time></trkpt><trkpt lat="43.7836617" lon="11.2080217"><ele>38.0</ele><time>2026-04-03T16:05:19.906Z</time></trkpt><trkpt lat="43.7836183" lon="11.208115"><ele>38.0</ele><time>2026-04-03T16:05:21.907Z</time></trkpt><trkpt lat="43.7835617" lon="11.20822"><ele>38.0</ele><time>2026-04-03T16:05:23.906Z</time></trkpt><trkpt lat="43.783515" lon="11.20833"><ele>38.0</ele><time>2026-04-03T16:05:25.906Z</time></trkpt><trkpt lat="43.78346" lon="11.2084317"><ele>38.0</ele><time>2026-04-03T16:05:27.906Z</time></trkpt><trkpt lat="43.7834117" lon="11.208535"><ele>38.199999999999996</ele><time>2026-04-03T16:05:29.906Z</time></trkpt><trkpt lat="43.78336" lon="11.208645"><ele>38.4</ele><time>2026-04-03T16:05:31.906Z</time></trkpt><trkpt lat="43.78331" lon="11.2087517"><ele>38.599999999999994</ele><time>2026-04-03T16:05:33.906Z</time></trkpt><trkpt lat="43.7832717" lon="11.208865"><ele>38.8</ele><time>2026-04-03T16:05:35.906Z</time></trkpt><trkpt lat="43.7832267" lon="11.2089717"><ele>39.0</ele><time>2026-04-03T16:05:37.906Z</time></trkpt><trkpt lat="43.7831767" lon="11.2090783"><ele>39.0</ele><time>2026-04-03T16:05:39.906Z</time></trkpt><trkpt lat="43.7831267" lon="11.20918"><ele>39.0</ele><time>2026-04-03T16:05:41.906Z</time></trkpt><trkpt lat="43.78307" lon="11.20929"><ele>39.0</ele><time>2026-04-03T16:05:43.906Z</time></trkpt><trkpt lat="43.783015" lon="11.2094"><ele>39.0</ele><time>2026-04-03T16:05:45.906Z</time></trkpt><trkpt lat="43.782965" lon="11.209515"><ele>39.0</ele><time>2026-04-03T16:05:47.906Z</time></trkpt><trkpt lat="43.7829117" lon="11.2096233"><ele>39.0</ele><time>2026-04-03T16:05:49.907Z</time></trkpt><trkpt lat="43.7828667" lon="11.20975"><ele>39.0</ele><time>2026-04-03T16:05:51.906Z</time></trkpt><trkpt lat="43.78281" lon="11.2098683"><ele>39.0</ele><time>2026-04-03T16:05:53.906Z</time></trkpt><trkpt lat="43.7827433" lon="11.2099883"><ele>39.0</ele><time>2026-04-03T16:05:55.905Z</time></trkpt><trkpt lat="43.7826783" lon="11.2101167"><ele>39.0</ele><time>2026-04-03T16:05:57.905Z</time></trkpt><trkpt lat="43.7826117" lon="11.21025"><ele>39.2</ele><time>2026-04-03T16:05:59.906Z</time></trkpt><trkpt lat="43.78255" lon="11.2103817"><ele>39.4</ele><time>2026-04-03T16:06:01.906Z</time></trkpt><trkpt lat="43.7824917" lon="11.2105033"><ele>39.6</ele><time>2026-04-03T16:06:03.905Z</time></trkpt><trkpt lat="43.78243" lon="11.21063"><ele>39.8</ele><time>2026-04-03T16:06:05.906Z</time></trkpt><trkpt lat="43.782375" lon="11.2107483"><ele>40.0</ele><time>2026-04-03T16:06:07.905Z</time></trkpt><trkpt lat="43.7823367" lon="11.2108667"><ele>39.4</ele><time>2026-04-03T16:06:09.906Z</time></trkpt><trkpt lat="43.7822917" lon="11.21098"><ele>38.8</ele><time>2026-04-03T16:06:11.906Z</time></trkpt><trkpt lat="43.7822367" lon="11.2110833"><ele>38.2</ele><time>2026-04-03T16:06:13.905Z</time></trkpt><trkpt lat="43.7821817" lon="11.21119"><ele>37.6</ele><time>2026-04-03T16:06:15.905Z</time></trkpt><trkpt lat="43.7821333" lon="11.2112967"><ele>37.0</ele><time>2026-04-03T16:06:17.905Z</time></trkpt><trkpt lat="43.7820767" lon="11.211405"><ele>37.16666666666667</ele><time>2026-04-03T16:06:19.905Z</time></trkpt><trkpt lat="43.7820383" lon="11.2115067"><ele>37.333333333333336</ele><time>2026-04-03T16:06:21.905Z</time></trkpt><trkpt lat="43.7820033" lon="11.2116033"><ele>37.5</ele><time>2026-04-03T16:06:23.906Z</time></trkpt><trkpt lat="43.781965" lon="11.211705"><ele>37.666666666666664</ele><time>2026-04-03T16:06:25.905Z</time></trkpt><trkpt lat="43.7819133" lon="11.21182"><ele>37.83333333333333</ele><time>2026-04-03T16:06:27.905Z</time></trkpt><trkpt lat="43.7818583" lon="11.2119233"><ele>38.0</ele><time>2026-04-03T16:06:29.905Z</time></trkpt><trkpt lat="43.7818167" lon="11.2120233"><ele>38.0</ele><time>2026-04-03T16:06:31.906Z</time></trkpt><trkpt lat="43.781795" lon="11.212135"><ele>38.0</ele><time>2026-04-03T16:06:33.905Z</time></trkpt><trkpt lat="43.7818067" lon="11.2122483"><ele>38.0</ele><time>2026-04-03T16:06:35.905Z</time></trkpt><trkpt lat="43.7818233" lon="11.2123683"><ele>38.0</ele><time>2026-04-03T16:06:37.905Z</time></trkpt><trkpt lat="43.78181" lon="11.2124733"><ele>38.0</ele><time>2026-04-03T16:06:40.905Z</time></trkpt><trkpt lat="43.7817667" lon="11.2125533"><ele>38.0</ele><time>2026-04-03T16:06:44.906Z</time></trkpt><trkpt lat="43.78173" lon="11.212645"><ele>38.166666666666664</ele><time>2026-04-03T16:06:48.905Z</time></trkpt><trkpt lat="43.7816967" lon="11.2127433"><ele>38.33333333333333</ele><time>2026-04-03T16:06:51.905Z</time></trkpt><trkpt lat="43.78165" lon="11.2128333"><ele>38.5</ele><time>2026-04-03T16:06:54.905Z</time></trkpt><trkpt lat="43.781615" lon="11.2129317"><ele>38.666666666666664</ele><time>2026-04-03T16:06:57.905Z</time></trkpt><trkpt lat="43.7815633" lon="11.2130283"><ele>38.833333333333336</ele><time>2026-04-03T16:07:00.906Z</time></trkpt><trkpt lat="43.78151" lon="11.2131283"><ele>39.0</ele><time>2026-04-03T16:07:03.905Z</time></trkpt><trkpt lat="43.78147" lon="11.213235"><ele>38.57142857142858</ele><time>2026-04-03T16:07:06.906Z</time></trkpt><trkpt lat="43.781435" lon="11.2133083"><ele>38.14285714285714</ele><time>2026-04-03T16:07:08.905Z</time></trkpt><trkpt lat="43.7813967" lon="11.2133867"><ele>37.714285714285715</ele><time>2026-04-03T16:07:10.905Z</time></trkpt><trkpt lat="43.7813617" lon="11.2134717"><ele>37.28571428571429</ele><time>2026-04-03T16:07:12.905Z</time></trkpt><trkpt lat="43.7813217" lon="11.213555"><ele>36.85714285714286</ele><time>2026-04-03T16:07:14.905Z</time></trkpt><trkpt lat="43.7812783" lon="11.21364"><ele>36.42857142857143</ele><time>2026-04-03T16:07:16.905Z</time></trkpt><trkpt lat="43.78124" lon="11.2137183"><ele>36.0</ele><time>2026-04-03T16:07:18.905Z</time></trkpt><trkpt lat="43.7811983" lon="11.2137933"><ele>36.0</ele><time>2026-04-03T16:07:20.906Z</time></trkpt><trkpt lat="43.7811483" lon="11.21386"><ele>36.0</ele><time>2026-04-03T16:07:22.906Z</time></trkpt><trkpt lat="43.7810983" lon="11.213935"><ele>36.0</ele><time>2026-04-03T16:07:24.905Z</time></trkpt><trkpt lat="43.781055" lon="11.2140233"><ele>36.0</ele><time>2026-04-03T16:07:26.905Z</time></trkpt><trkpt lat="43.78101" lon="11.2141167"><ele>36.0</ele><time>2026-04-03T16:07:28.906Z</time></trkpt><trkpt lat="43.780965" lon="11.214215"><ele>36.0</ele><time>2026-04-03T16:07:30.905Z</time></trkpt><trkpt lat="43.7809183" lon="11.21431"><ele>36.6</ele><time>2026-04-03T16:07:32.905Z</time></trkpt><trkpt lat="43.7808717" lon="11.2144017"><ele>37.2</ele><time>2026-04-03T16:07:34.905Z</time></trkpt><trkpt lat="43.780825" lon="11.2145033"><ele>37.8</ele><time>2026-04-03T16:07:36.906Z</time></trkpt><trkpt lat="43.7807717" lon="11.21461"><ele>38.4</ele><time>2026-04-03T16:07:38.905Z</time></trkpt><trkpt lat="43.7807167" lon="11.2147267"><ele>39.0</ele><time>2026-04-03T16:07:40.906Z</time></trkpt><trkpt lat="43.7806633" lon="11.21485"><ele>39.0</ele><time>2026-04-03T16:07:42.905Z</time></trkpt><trkpt lat="43.780615" lon="11.214975"><ele>39.0</ele><time>2026-04-03T16:07:44.906Z</time></trkpt><trkpt lat="43.7805633" lon="11.215095"><ele>39.0</ele><time>2026-04-03T16:07:46.905Z</time></trkpt><trkpt lat="43.7805117" lon="11.21522"><ele>39.0</ele><time>2026-04-03T16:07:48.906Z</time></trkpt><trkpt lat="43.7804533" lon="11.2153367"><ele>39.0</ele><time>2026-04-03T16:07:50.905Z</time></trkpt><trkpt lat="43.7804017" lon="11.215445"><ele>39.0</ele><time>2026-04-03T16:07:52.905Z</time></trkpt><trkpt lat="43.7803433" lon="11.2155517"><ele>39.0</ele><time>2026-04-03T16:07:54.905Z</time></trkpt><trkpt lat="43.7802967" lon="11.21566"><ele>39.0</ele><time>2026-04-03T16:07:56.906Z</time></trkpt><trkpt lat="43.7802517" lon="11.2157683"><ele>39.0</ele><time>2026-04-03T16:07:58.905Z</time></trkpt><trkpt lat="43.780205" lon="11.2158717"><ele>39.0</ele><time>2026-04-03T16:08:00.905Z</time></trkpt><trkpt lat="43.7801567" lon="11.2159983"><ele>39.4</ele><time>2026-04-03T16:08:02.906Z</time></trkpt><trkpt lat="43.7801067" lon="11.2161283"><ele>39.8</ele><time>2026-04-03T16:08:04.905Z</time></trkpt><trkpt lat="43.7800617" lon="11.2162433"><ele>40.199999999999996</ele><time>2026-04-03T16:08:06.905Z</time></trkpt><trkpt lat="43.780015" lon="11.21636"><ele>40.599999999999994</ele><time>2026-04-03T16:08:08.905Z</time></trkpt><trkpt lat="43.779965" lon="11.2164783"><ele>41.0</ele><time>2026-04-03T16:08:10.905Z</time></trkpt><trkpt lat="43.7799217" lon="11.2165983"><ele>41.0</ele><time>2026-04-03T16:08:12.905Z</time></trkpt><trkpt lat="43.7798767" lon="11.2167183"><ele>41.0</ele><time>2026-04-03T16:08:14.906Z</time></trkpt><trkpt lat="43.77983" lon="11.2168367"><ele>41.0</ele><time>2026-04-03T16:08:16.906Z</time></trkpt><trkpt lat="43.779795" lon="11.21693"><ele>41.0</ele><time>2026-04-03T16:08:18.906Z</time></trkpt><trkpt lat="43.7797867" lon="11.2170517"><ele>41.0</ele><time>2026-04-03T16:08:21.905Z</time></trkpt><trkpt lat="43.7798067" lon="11.21714"><ele>41.0</ele><time>2026-04-03T16:08:23.906Z</time></trkpt><trkpt lat="43.779785" lon="11.21727"><ele>40.8</ele><time>2026-04-03T16:08:25.905Z</time></trkpt><trkpt lat="43.779735" lon="11.2174167"><ele>40.599999999999994</ele><time>2026-04-03T16:08:27.905Z</time></trkpt><trkpt lat="43.779685" lon="11.2175517"><ele>40.4</ele><time>2026-04-03T16:08:29.905Z</time></trkpt><trkpt lat="43.7796233" lon="11.2176583"><ele>40.2</ele><time>2026-04-03T16:08:31.905Z</time></trkpt><trkpt lat="43.7795433" lon="11.21775"><ele>40.0</ele><time>2026-04-03T16:08:33.905Z</time></trkpt><trkpt lat="43.779465" lon="11.2178583"><ele>40.0</ele><time>2026-04-03T16:08:35.905Z</time></trkpt><trkpt lat="43.7793833" lon="11.2179433"><ele>40.0</ele><time>2026-04-03T16:08:37.906Z</time></trkpt><trkpt lat="43.7793" lon="11.218025"><ele>40.0</ele><time>2026-04-03T16:08:39.905Z</time></trkpt><trkpt lat="43.77924" lon="11.2181317"><ele>40.0</ele><time>2026-04-03T16:08:41.905Z</time></trkpt><trkpt lat="43.7792083" lon="11.2182483"><ele>40.0</ele><time>2026-04-03T16:08:43.905Z</time></trkpt><trkpt lat="43.7791833" lon="11.2183717"><ele>40.16666666666667</ele><time>2026-04-03T16:08:45.905Z</time></trkpt><trkpt lat="43.7791617" lon="11.21848"><ele>40.333333333333336</ele><time>2026-04-03T16:08:47.906Z</time></trkpt><trkpt lat="43.779135" lon="11.2185883"><ele>40.5</ele><time>2026-04-03T16:08:49.905Z</time></trkpt><trkpt lat="43.7791083" lon="11.2186933"><ele>40.666666666666664</ele><time>2026-04-03T16:08:51.905Z</time></trkpt><trkpt lat="43.7790667" lon="11.2188133"><ele>40.83333333333333</ele><time>2026-04-03T16:08:53.905Z</time></trkpt><trkpt lat="43.7790317" lon="11.21892"><ele>41.0</ele><time>2026-04-03T16:08:55.905Z</time></trkpt><trkpt lat="43.7789933" lon="11.2190267"><ele>41.0</ele><time>2026-04-03T16:08:57.906Z</time></trkpt><trkpt lat="43.7789567" lon="11.2191217"><ele>41.0</ele><time>2026-04-03T16:08:59.906Z</time></trkpt><trkpt lat="43.7789133" lon="11.21922"><ele>41.0</ele><time>2026-04-03T16:09:01.905Z</time></trkpt><trkpt lat="43.7788717" lon="11.2193317"><ele>41.0</ele><time>2026-04-03T16:09:03.905Z</time></trkpt><trkpt lat="43.778835" lon="11.219445"><ele>41.0</ele><time>2026-04-03T16:09:05.906Z</time></trkpt><trkpt lat="43.7787933" lon="11.219555"><ele>41.0</ele><time>2026-04-03T16:09:07.905Z</time></trkpt><trkpt lat="43.7787583" lon="11.2196783"><ele>41.0</ele><time>2026-04-03T16:09:09.905Z</time></trkpt><trkpt lat="43.7787233" lon="11.2197983"><ele>41.0</ele><time>2026-04-03T16:09:11.906Z</time></trkpt><trkpt lat="43.7786917" lon="11.2199117"><ele>41.0</ele><time>2026-04-03T16:09:13.905Z</time></trkpt><trkpt lat="43.7786567" lon="11.2200033"><ele>41.0</ele><time>2026-04-03T16:09:15.905Z</time></trkpt><trkpt lat="43.7786183" lon="11.220095"><ele>41.0</ele><time>2026-04-03T16:09:17.905Z</time></trkpt><trkpt lat="43.7785783" lon="11.22019"><ele>41.0</ele><time>2026-04-03T16:09:19.905Z</time></trkpt><trkpt lat="43.7785333" lon="11.2202817"><ele>41.83333333333333</ele><time>2026-04-03T16:09:21.905Z</time></trkpt><trkpt lat="43.7784883" lon="11.2203817"><ele>42.666666666666664</ele><time>2026-04-03T16:09:23.906Z</time></trkpt><trkpt lat="43.7784567" lon="11.2204917"><ele>43.5</ele><time>2026-04-03T16:09:25.905Z</time></trkpt><trkpt lat="43.778425" lon="11.2205983"><ele>44.333333333333336</ele><time>2026-04-03T16:09:27.905Z</time></trkpt><trkpt lat="43.7783883" lon="11.220705"><ele>45.16666666666667</ele><time>2026-04-03T16:09:29.905Z</time></trkpt><trkpt lat="43.77835" lon="11.2207967"><ele>46.0</ele><time>2026-04-03T16:09:31.906Z</time></trkpt><trkpt lat="43.7783117" lon="11.2208933"><ele>46.0</ele><time>2026-04-03T16:09:33.905Z</time></trkpt><trkpt lat="43.778275" lon="11.2209883"><ele>46.0</ele><time>2026-04-03T16:09:35.905Z</time></trkpt><trkpt lat="43.7782367" lon="11.22109"><ele>46.0</ele><time>2026-04-03T16:09:37.905Z</time></trkpt><trkpt lat="43.7782033" lon="11.2211933"><ele>46.0</ele><time>2026-04-03T16:09:39.905Z</time></trkpt><trkpt lat="43.77817" lon="11.2212933"><ele>46.0</ele><time>2026-04-03T16:09:41.905Z</time></trkpt><trkpt lat="43.7781317" lon="11.221385"><ele>46.0</ele><time>2026-04-03T16:09:43.906Z</time></trkpt><trkpt lat="43.7780867" lon="11.221485"><ele>46.0</ele><time>2026-04-03T16:09:45.905Z</time></trkpt><trkpt lat="43.7780533" lon="11.221575"><ele>46.0</ele><time>2026-04-03T16:09:47.906Z</time></trkpt><trkpt lat="43.778025" lon="11.2216617"><ele>46.0</ele><time>2026-04-03T16:09:49.905Z</time></trkpt><trkpt lat="43.7780283" lon="11.2217833"><ele>46.0</ele><time>2026-04-03T16:09:52.905Z</time></trkpt><trkpt lat="43.7780083" lon="11.2218883"><ele>46.0</ele><time>2026-04-03T16:09:54.905Z</time></trkpt><trkpt lat="43.7779767" lon="11.2219967"><ele>46.0</ele><time>2026-04-03T16:09:56.905Z</time></trkpt><trkpt lat="43.7779283" lon="11.2221133"><ele>46.0</ele><time>2026-04-03T16:09:58.905Z</time></trkpt><trkpt lat="43.777885" lon="11.2222233"><ele>46.0</ele><time>2026-04-03T16:10:00.905Z</time></trkpt><trkpt lat="43.7778433" lon="11.2223267"><ele>46.0</ele><time>2026-04-03T16:10:02.905Z</time></trkpt><trkpt lat="43.7777933" lon="11.2224483"><ele>46.0</ele><time>2026-04-03T16:10:04.905Z</time></trkpt><trkpt lat="43.7777533" lon="11.22255"><ele>46.0</ele><time>2026-04-03T16:10:06.906Z</time></trkpt><trkpt lat="43.77772" lon="11.22266"><ele>46.0</ele><time>2026-04-03T16:10:08.905Z</time></trkpt><trkpt lat="43.7776783" lon="11.2227683"><ele>46.0</ele><time>2026-04-03T16:10:10.905Z</time></trkpt><trkpt lat="43.7776417" lon="11.22288"><ele>46.0</ele><time>2026-04-03T16:10:12.905Z</time></trkpt><trkpt lat="43.7776083" lon="11.2229833"><ele>46.0</ele><time>2026-04-03T16:10:14.905Z</time></trkpt><trkpt lat="43.777575" lon="11.2230867"><ele>46.0</ele><time>2026-04-03T16:10:16.905Z</time></trkpt><trkpt lat="43.7775417" lon="11.2231883"><ele>46.0</ele><time>2026-04-03T16:10:18.906Z</time></trkpt><trkpt lat="43.77751" lon="11.2232917"><ele>46.0</ele><time>2026-04-03T16:10:20.906Z</time></trkpt><trkpt lat="43.777475" lon="11.2233967"><ele>45.5</ele><time>2026-04-03T16:10:22.905Z</time></trkpt><trkpt lat="43.7774383" lon="11.2234983"><ele>45.0</ele><time>2026-04-03T16:10:24.905Z</time></trkpt><trkpt lat="43.77741" lon="11.2235983"><ele>44.5</ele><time>2026-04-03T16:10:26.904Z</time></trkpt><trkpt lat="43.777385" lon="11.2236983"><ele>44.0</ele><time>2026-04-03T16:10:28.905Z</time></trkpt><trkpt lat="43.7773767" lon="11.2238033"><ele>43.5</ele><time>2026-04-03T16:10:30.904Z</time></trkpt><trkpt lat="43.777365" lon="11.2239217"><ele>43.0</ele><time>2026-04-03T16:10:32.904Z</time></trkpt><trkpt lat="43.77733" lon="11.2240333"><ele>42.199999999999996</ele><time>2026-04-03T16:10:34.904Z</time></trkpt><trkpt lat="43.7773" lon="11.2241467"><ele>41.4</ele><time>2026-04-03T16:10:36.904Z</time></trkpt><trkpt lat="43.7772783" lon="11.2242583"><ele>40.599999999999994</ele><time>2026-04-03T16:10:38.904Z</time></trkpt><trkpt lat="43.7772617" lon="11.2243717"><ele>39.8</ele><time>2026-04-03T16:10:40.904Z</time></trkpt><trkpt lat="43.77724" lon="11.2245117"><ele>39.0</ele><time>2026-04-03T16:10:42.905Z</time></trkpt><trkpt lat="43.7771933" lon="11.2246483"><ele>39.0</ele><time>2026-04-03T16:10:44.905Z</time></trkpt><trkpt lat="43.777155" lon="11.22477"><ele>39.0</ele><time>2026-04-03T16:10:46.904Z</time></trkpt><trkpt lat="43.7771133" lon="11.2248783"><ele>39.0</ele><time>2026-04-03T16:10:48.904Z</time></trkpt><trkpt lat="43.777075" lon="11.2249917"><ele>39.0</ele><time>2026-04-03T16:10:50.904Z</time></trkpt><trkpt lat="43.7770367" lon="11.22511"><ele>39.0</ele><time>2026-04-03T16:10:52.904Z</time></trkpt><trkpt lat="43.7770033" lon="11.2252183"><ele>39.5</ele><time>2026-04-03T16:10:54.904Z</time></trkpt><trkpt lat="43.7769717" lon="11.2253333"><ele>40.0</ele><time>2026-04-03T16:10:56.905Z</time></trkpt><trkpt lat="43.7769383" lon="11.2254383"><ele>40.5</ele><time>2026-04-03T16:10:58.904Z</time></trkpt><trkpt lat="43.7769" lon="11.2255533"><ele>41.0</ele><time>2026-04-03T16:11:00.904Z</time></trkpt><trkpt lat="43.7768833" lon="11.225675"><ele>41.5</ele><time>2026-04-03T16:11:02.904Z</time></trkpt><trkpt lat="43.7768433" lon="11.2257917"><ele>42.0</ele><time>2026-04-03T16:11:04.905Z</time></trkpt><trkpt lat="43.7768067" lon="11.22591"><ele>42.0</ele><time>2026-04-03T16:11:06.905Z</time></trkpt><trkpt lat="43.7767667" lon="11.2260283"><ele>42.0</ele><time>2026-04-03T16:11:08.904Z</time></trkpt><trkpt lat="43.7767317" lon="11.2261483"><ele>42.0</ele><time>2026-04-03T16:11:10.905Z</time></trkpt><trkpt lat="43.77668" lon="11.2262733"><ele>42.0</ele><time>2026-04-03T16:11:12.904Z</time></trkpt><trkpt lat="43.776635" lon="11.2263933"><ele>42.0</ele><time>2026-04-03T16:11:14.904Z</time></trkpt><trkpt lat="43.77659" lon="11.22652"><ele>42.0</ele><time>2026-04-03T16:11:16.904Z</time></trkpt><trkpt lat="43.77655" lon="11.2266467"><ele>42.0</ele><time>2026-04-03T16:11:18.904Z</time></trkpt><trkpt lat="43.7765167" lon="11.2267683"><ele>42.0</ele><time>2026-04-03T16:11:20.904Z</time></trkpt><trkpt lat="43.7764717" lon="11.2268883"><ele>42.0</ele><time>2026-04-03T16:11:22.904Z</time></trkpt><trkpt lat="43.7764317" lon="11.2270083"><ele>42.0</ele><time>2026-04-03T16:11:24.904Z</time></trkpt><trkpt lat="43.7763933" lon="11.227125"><ele>42.0</ele><time>2026-04-03T16:11:26.905Z</time></trkpt><trkpt lat="43.7763483" lon="11.22726"><ele>42.0</ele><time>2026-04-03T16:11:28.904Z</time></trkpt><trkpt lat="43.7763083" lon="11.22738"><ele>42.0</ele><time>2026-04-03T16:11:30.904Z</time></trkpt><trkpt lat="43.776265" lon="11.2274883"><ele>42.0</ele><time>2026-04-03T16:11:32.905Z</time></trkpt><trkpt lat="43.7762283" lon="11.2275867"><ele>42.0</ele><time>2026-04-03T16:11:34.904Z</time></trkpt><trkpt lat="43.7762017" lon="11.2276833"><ele>42.0</ele><time>2026-04-03T16:11:36.905Z</time></trkpt><trkpt lat="43.7761783" lon="11.2277817"><ele>42.166666666666664</ele><time>2026-04-03T16:11:38.905Z</time></trkpt><trkpt lat="43.7761483" lon="11.227885"><ele>42.333333333333336</ele><time>2026-04-03T16:11:40.905Z</time></trkpt><trkpt lat="43.7761117" lon="11.22799"><ele>42.5</ele><time>2026-04-03T16:11:42.904Z</time></trkpt><trkpt lat="43.7760767" lon="11.2281067"><ele>42.66666666666667</ele><time>2026-04-03T16:11:44.904Z</time></trkpt><trkpt lat="43.77603" lon="11.228225"><ele>42.833333333333336</ele><time>2026-04-03T16:11:46.905Z</time></trkpt><trkpt lat="43.7759933" lon="11.2283367"><ele>43.0</ele><time>2026-04-03T16:11:48.904Z</time></trkpt><trkpt lat="43.77596" lon="11.22844"><ele>43.0</ele><time>2026-04-03T16:11:50.905Z</time></trkpt><trkpt lat="43.775935" lon="11.22854"><ele>43.0</ele><time>2026-04-03T16:11:52.905Z</time></trkpt><trkpt lat="43.7759033" lon="11.2286633"><ele>43.0</ele><time>2026-04-03T16:11:55.904Z</time></trkpt><trkpt lat="43.7758767" lon="11.2287517"><ele>43.0</ele><time>2026-04-03T16:11:57.904Z</time></trkpt><trkpt lat="43.77585" lon="11.228845"><ele>43.0</ele><time>2026-04-03T16:11:59.904Z</time></trkpt><trkpt lat="43.7758583" lon="11.2289617"><ele>43.0</ele><time>2026-04-03T16:12:02.904Z</time></trkpt><trkpt lat="43.7759167" lon="11.2290333"><ele>42.8</ele><time>2026-04-03T16:12:05.905Z</time></trkpt><trkpt lat="43.7759867" lon="11.2291033"><ele>42.599999999999994</ele><time>2026-04-03T16:12:08.905Z</time></trkpt><trkpt lat="43.776055" lon="11.2291683"><ele>42.400000000000006</ele><time>2026-04-03T16:12:11.904Z</time></trkpt><trkpt lat="43.77613" lon="11.22923"><ele>42.2</ele><time>2026-04-03T16:12:14.905Z</time></trkpt><trkpt lat="43.7762317" lon="11.2293183"><ele>42.0</ele><time>2026-04-03T16:12:18.904Z</time></trkpt><trkpt lat="43.7763117" lon="11.2293817"><ele>42.0</ele><time>2026-04-03T16:12:21.905Z</time></trkpt><trkpt lat="43.7763717" lon="11.22942"><ele>42.0</ele><time>2026-04-03T16:12:23.904Z</time></trkpt><trkpt lat="43.7764533" lon="11.2294817"><ele>42.0</ele><time>2026-04-03T16:12:26.904Z</time></trkpt><trkpt lat="43.7765167" lon="11.2295283"><ele>42.0</ele><time>2026-04-03T16:12:28.904Z</time></trkpt><trkpt lat="43.7765767" lon="11.2295767"><ele>42.0</ele><time>2026-04-03T16:12:30.904Z</time></trkpt><trkpt lat="43.7766433" lon="11.22963"><ele>42.0</ele><time>2026-04-03T16:12:32.904Z</time></trkpt><trkpt lat="43.7767183" lon="11.2296867"><ele>42.0</ele><time>2026-04-03T16:12:34.905Z</time></trkpt><trkpt lat="43.7767983" lon="11.229765"><ele>42.0</ele><time>2026-04-03T16:12:36.904Z</time></trkpt><trkpt lat="43.7768683" lon="11.229875"><ele>42.0</ele><time>2026-04-03T16:12:38.905Z</time></trkpt><trkpt lat="43.7768967" lon="11.230015"><ele>42.0</ele><time>2026-04-03T16:12:40.905Z</time></trkpt><trkpt lat="43.776875" lon="11.230165"><ele>42.0</ele><time>2026-04-03T16:12:42.904Z</time></trkpt><trkpt lat="43.7768417" lon="11.2303233"><ele>42.2</ele><time>2026-04-03T16:12:44.904Z</time></trkpt><trkpt lat="43.7767933" lon="11.230465"><ele>42.400000000000006</ele><time>2026-04-03T16:12:46.904Z</time></trkpt><trkpt lat="43.77676" lon="11.2306"><ele>42.599999999999994</ele><time>2026-04-03T16:12:48.904Z</time></trkpt><trkpt lat="43.776735" lon="11.2307283"><ele>42.8</ele><time>2026-04-03T16:12:50.904Z</time></trkpt><trkpt lat="43.7767" lon="11.230845"><ele>43.0</ele><time>2026-04-03T16:12:52.905Z</time></trkpt><trkpt lat="43.7766617" lon="11.2309483"><ele>43.16666666666667</ele><time>2026-04-03T16:12:54.904Z</time></trkpt><trkpt lat="43.7766333" lon="11.23104"><ele>43.333333333333336</ele><time>2026-04-03T16:12:56.904Z</time></trkpt><trkpt lat="43.7765917" lon="11.2311367"><ele>43.5</ele><time>2026-04-03T16:12:58.904Z</time></trkpt><trkpt lat="43.7765767" lon="11.2312317"><ele>43.666666666666664</ele><time>2026-04-03T16:13:00.904Z</time></trkpt><trkpt lat="43.776535" lon="11.2313533"><ele>43.83333333333333</ele><time>2026-04-03T16:13:02.904Z</time></trkpt><trkpt lat="43.7764983" lon="11.23147"><ele>44.0</ele><time>2026-04-03T16:13:04.904Z</time></trkpt><trkpt lat="43.7764717" lon="11.2315833"><ele>44.800000000000004</ele><time>2026-04-03T16:13:06.905Z</time></trkpt><trkpt lat="43.77644" lon="11.2316983"><ele>45.6</ele><time>2026-04-03T16:13:08.904Z</time></trkpt><trkpt lat="43.776405" lon="11.2318217"><ele>46.4</ele><time>2026-04-03T16:13:10.904Z</time></trkpt><trkpt lat="43.776365" lon="11.231945"><ele>47.2</ele><time>2026-04-03T16:13:12.905Z</time></trkpt><trkpt lat="43.7763233" lon="11.2320667"><ele>48.0</ele><time>2026-04-03T16:13:14.904Z</time></trkpt><trkpt lat="43.7762917" lon="11.23219"><ele>48.4</ele><time>2026-04-03T16:13:16.904Z</time></trkpt><trkpt lat="43.7762583" lon="11.2323133"><ele>48.8</ele><time>2026-04-03T16:13:18.904Z</time></trkpt><trkpt lat="43.776225" lon="11.2324367"><ele>49.2</ele><time>2026-04-03T16:13:20.904Z</time></trkpt><trkpt lat="43.776195" lon="11.2325617"><ele>49.6</ele><time>2026-04-03T16:13:22.905Z</time></trkpt><trkpt lat="43.7761733" lon="11.2326883"><ele>50.0</ele><time>2026-04-03T16:13:24.905Z</time></trkpt><trkpt lat="43.7761483" lon="11.2328217"><ele>50.0</ele><time>2026-04-03T16:13:26.904Z</time></trkpt><trkpt lat="43.7761233" lon="11.23296"><ele>50.0</ele><time>2026-04-03T16:13:28.904Z</time></trkpt><trkpt lat="43.77608" lon="11.2330883"><ele>50.0</ele><time>2026-04-03T16:13:30.905Z</time></trkpt><trkpt lat="43.77604" lon="11.2332267"><ele>50.0</ele><time>2026-04-03T16:13:32.904Z</time></trkpt><trkpt lat="43.775995" lon="11.2333567"><ele>50.0</ele><time>2026-04-03T16:13:34.904Z</time></trkpt><trkpt lat="43.7759633" lon="11.2334833"><ele>48.8</ele><time>2026-04-03T16:13:36.905Z</time></trkpt><trkpt lat="43.7759233" lon="11.2336133"><ele>47.6</ele><time>2026-04-03T16:13:38.904Z</time></trkpt><trkpt lat="43.775885" lon="11.2337433"><ele>46.400000000000006</ele><time>2026-04-03T16:13:40.904Z</time></trkpt><trkpt lat="43.7758617" lon="11.2338783"><ele>45.2</ele><time>2026-04-03T16:13:42.904Z</time></trkpt><trkpt lat="43.7758383" lon="11.2340133"><ele>44.0</ele><time>2026-04-03T16:13:44.905Z</time></trkpt><trkpt lat="43.775825" lon="11.2341417"><ele>44.0</ele><time>2026-04-03T16:13:46.904Z</time></trkpt><trkpt lat="43.775825" lon="11.2342717"><ele>44.0</ele><time>2026-04-03T16:13:48.905Z</time></trkpt><trkpt lat="43.7758383" lon="11.234395"><ele>44.0</ele><time>2026-04-03T16:13:50.905Z</time></trkpt><trkpt lat="43.7758633" lon="11.234495"><ele>44.0</ele><time>2026-04-03T16:13:52.904Z</time></trkpt><trkpt lat="43.775885" lon="11.2346"><ele>44.0</ele><time>2026-04-03T16:13:54.904Z</time></trkpt><trkpt lat="43.7759117" lon="11.2347067"><ele>44.0</ele><time>2026-04-03T16:13:56.904Z</time></trkpt><trkpt lat="43.77595" lon="11.2348067"><ele>44.0</ele><time>2026-04-03T16:13:58.904Z</time></trkpt><trkpt lat="43.776" lon="11.234905"><ele>44.0</ele><time>2026-04-03T16:14:00.905Z</time></trkpt><trkpt lat="43.7760433" lon="11.2349967"><ele>44.0</ele><time>2026-04-03T16:14:02.904Z</time></trkpt><trkpt lat="43.77605" lon="11.2350917"><ele>44.0</ele><time>2026-04-03T16:14:04.905Z</time></trkpt><trkpt lat="43.776045" lon="11.2351983"><ele>44.0</ele><time>2026-04-03T16:14:06.905Z</time></trkpt><trkpt lat="43.77604" lon="11.23531"><ele>44.0</ele><time>2026-04-03T16:14:08.904Z</time></trkpt><trkpt lat="43.776035" lon="11.23542"><ele>44.0</ele><time>2026-04-03T16:14:10.904Z</time></trkpt><trkpt lat="43.77602" lon="11.235525"><ele>44.0</ele><time>2026-04-03T16:14:12.904Z</time></trkpt><trkpt lat="43.7759833" lon="11.235625"><ele>44.0</ele><time>2026-04-03T16:14:14.904Z</time></trkpt><trkpt lat="43.7759517" lon="11.2357217"><ele>44.0</ele><time>2026-04-03T16:14:16.904Z</time></trkpt><trkpt lat="43.7759267" lon="11.2358133"><ele>44.0</ele><time>2026-04-03T16:14:18.904Z</time></trkpt><trkpt lat="43.7758933" lon="11.235895"><ele>44.0</ele><time>2026-04-03T16:14:20.905Z</time></trkpt><trkpt lat="43.775865" lon="11.2359983"><ele>44.33333333333333</ele><time>2026-04-03T16:14:23.905Z</time></trkpt><trkpt lat="43.775845" lon="11.2361117"><ele>44.666666666666664</ele><time>2026-04-03T16:14:26.903Z</time></trkpt><trkpt lat="43.775845" lon="11.2362417"><ele>45.0</ele><time>2026-04-03T16:14:29.903Z</time></trkpt><trkpt lat="43.7758367" lon="11.2363317"><ele>45.333333333333336</ele><time>2026-04-03T16:14:31.903Z</time></trkpt><trkpt lat="43.7758267" lon="11.2364333"><ele>45.66666666666667</ele><time>2026-04-03T16:14:33.903Z</time></trkpt><trkpt lat="43.775795" lon="11.2365517"><ele>46.0</ele><time>2026-04-03T16:14:35.903Z</time></trkpt><trkpt lat="43.77576" lon="11.2366683"><ele>46.16666666666667</ele><time>2026-04-03T16:14:37.903Z</time></trkpt><trkpt lat="43.7757217" lon="11.2367733"><ele>46.333333333333336</ele><time>2026-04-03T16:14:39.904Z</time></trkpt><trkpt lat="43.77567" lon="11.236855"><ele>46.5</ele><time>2026-04-03T16:14:41.903Z</time></trkpt><trkpt lat="43.7756" lon="11.2368583"><ele>46.666666666666664</ele><time>2026-04-03T16:14:43.903Z</time></trkpt><trkpt lat="43.7755383" lon="11.2367933"><ele>46.83333333333333</ele><time>2026-04-03T16:14:45.903Z</time></trkpt><trkpt lat="43.7754783" lon="11.2367483"><ele>47.0</ele><time>2026-04-03T16:14:47.904Z</time></trkpt><trkpt lat="43.775415" lon="11.2366933"><ele>47.0</ele><time>2026-04-03T16:14:49.903Z</time></trkpt><trkpt lat="43.7753467" lon="11.2366383"><ele>47.0</ele><time>2026-04-03T16:14:51.903Z</time></trkpt><trkpt lat="43.7752783" lon="11.23659"><ele>47.0</ele><time>2026-04-03T16:14:53.904Z</time></trkpt><trkpt lat="43.7752133" lon="11.2365483"><ele>47.0</ele><time>2026-04-03T16:14:55.903Z</time></trkpt><trkpt lat="43.7751533" lon="11.2365067"><ele>47.0</ele><time>2026-04-03T16:14:57.903Z</time></trkpt><trkpt lat="43.7750917" lon="11.23646"><ele>47.0</ele><time>2026-04-03T16:14:59.903Z</time></trkpt><trkpt lat="43.775015" lon="11.23647"><ele>47.0</ele><time>2026-04-03T16:15:01.903Z</time></trkpt><trkpt lat="43.774965" lon="11.23656"><ele>47.166666666666664</ele><time>2026-04-03T16:15:03.903Z</time></trkpt><trkpt lat="43.7749283" lon="11.2366667"><ele>47.33333333333333</ele><time>2026-04-03T16:15:05.903Z</time></trkpt><trkpt lat="43.7749117" lon="11.2367783"><ele>47.5</ele><time>2026-04-03T16:15:07.903Z</time></trkpt><trkpt lat="43.774885" lon="11.2369017"><ele>47.666666666666664</ele><time>2026-04-03T16:15:09.903Z</time></trkpt><trkpt lat="43.77485" lon="11.237015"><ele>47.833333333333336</ele><time>2026-04-03T16:15:11.904Z</time></trkpt><trkpt lat="43.7748117" lon="11.23713"><ele>48.0</ele><time>2026-04-03T16:15:13.904Z</time></trkpt><trkpt lat="43.7747667" lon="11.23724"><ele>48.599999999999994</ele><time>2026-04-03T16:15:15.903Z</time></trkpt><trkpt lat="43.7747267" lon="11.23736"><ele>49.199999999999996</ele><time>2026-04-03T16:15:17.903Z</time></trkpt><trkpt lat="43.77469" lon="11.2374867"><ele>49.8</ele><time>2026-04-03T16:15:19.903Z</time></trkpt><trkpt lat="43.7746517" lon="11.23761"><ele>50.4</ele><time>2026-04-03T16:15:21.904Z</time></trkpt><trkpt lat="43.7746133" lon="11.2377317"><ele>51.0</ele><time>2026-04-03T16:15:23.903Z</time></trkpt><trkpt lat="43.774575" lon="11.2378567"><ele>51.0</ele><time>2026-04-03T16:15:25.903Z</time></trkpt><trkpt lat="43.77453" lon="11.2379717"><ele>51.0</ele><time>2026-04-03T16:15:27.903Z</time></trkpt><trkpt lat="43.7744917" lon="11.238085"><ele>51.0</ele><time>2026-04-03T16:15:29.903Z</time></trkpt><trkpt lat="43.7744617" lon="11.2382017"><ele>51.0</ele><time>2026-04-03T16:15:31.903Z</time></trkpt><trkpt lat="43.7744267" lon="11.2383167"><ele>51.0</ele><time>2026-04-03T16:15:33.904Z</time></trkpt><trkpt lat="43.7743833" lon="11.238425"><ele>50.8</ele><time>2026-04-03T16:15:35.903Z</time></trkpt><trkpt lat="43.7743467" lon="11.238545"><ele>50.599999999999994</ele><time>2026-04-03T16:15:37.903Z</time></trkpt><trkpt lat="43.7743133" lon="11.2386583"><ele>50.4</ele><time>2026-04-03T16:15:39.903Z</time></trkpt><trkpt lat="43.7742833" lon="11.23877"><ele>50.2</ele><time>2026-04-03T16:15:41.903Z</time></trkpt><trkpt lat="43.77425" lon="11.2388917"><ele>50.0</ele><time>2026-04-03T16:15:43.903Z</time></trkpt><trkpt lat="43.7742133" lon="11.2390033"><ele>50.00000000000001</ele><time>2026-04-03T16:15:45.904Z</time></trkpt><trkpt lat="43.7741767" lon="11.23912"><ele>50.0</ele><time>2026-04-03T16:15:47.903Z</time></trkpt><trkpt lat="43.7741417" lon="11.23924"><ele>50.0</ele><time>2026-04-03T16:15:49.903Z</time></trkpt><trkpt lat="43.7741033" lon="11.239345"><ele>50.0</ele><time>2026-04-03T16:15:51.903Z</time></trkpt><trkpt lat="43.7740517" lon="11.2394283"><ele>50.00000000000001</ele><time>2026-04-03T16:15:53.903Z</time></trkpt><trkpt lat="43.7739967" lon="11.2395017"><ele>50.0</ele><time>2026-04-03T16:15:56.904Z</time></trkpt><trkpt lat="43.773985" lon="11.2395967"><ele>50.00000000000001</ele><time>2026-04-03T16:16:00.903Z</time></trkpt><trkpt lat="43.7739567" lon="11.2396867"><ele>50.0</ele><time>2026-04-03T16:16:03.903Z</time></trkpt><trkpt lat="43.7739217" lon="11.2397967"><ele>50.0</ele><time>2026-04-03T16:16:06.903Z</time></trkpt><trkpt lat="43.77389" lon="11.23992"><ele>50.0</ele><time>2026-04-03T16:16:09.904Z</time></trkpt><trkpt lat="43.7738633" lon="11.240015"><ele>50.00000000000001</ele><time>2026-04-03T16:16:11.903Z</time></trkpt><trkpt lat="43.7738317" lon="11.2401067"><ele>50.0</ele><time>2026-04-03T16:16:13.903Z</time></trkpt><trkpt lat="43.7738067" lon="11.2401983"><ele>50.16666666666667</ele><time>2026-04-03T16:16:15.904Z</time></trkpt><trkpt lat="43.7737767" lon="11.2403017"><ele>50.333333333333336</ele><time>2026-04-03T16:16:17.903Z</time></trkpt><trkpt lat="43.7737483" lon="11.2403983"><ele>50.5</ele><time>2026-04-03T16:16:19.903Z</time></trkpt><trkpt lat="43.7737183" lon="11.2405"><ele>50.66666666666667</ele><time>2026-04-03T16:16:21.903Z</time></trkpt><trkpt lat="43.7736867" lon="11.240595"><ele>50.833333333333336</ele><time>2026-04-03T16:16:23.903Z</time></trkpt><trkpt lat="43.7736517" lon="11.240695"><ele>51.0</ele><time>2026-04-03T16:16:25.903Z</time></trkpt><trkpt lat="43.773615" lon="11.2407917"><ele>51.0</ele><time>2026-04-03T16:16:27.903Z</time></trkpt><trkpt lat="43.7735883" lon="11.2408783"><ele>51.0</ele><time>2026-04-03T16:16:29.904Z</time></trkpt><trkpt lat="43.7735517" lon="11.240965"><ele>51.0</ele><time>2026-04-03T16:16:33.903Z</time></trkpt><trkpt lat="43.7735017" lon="11.2410483"><ele>51.0</ele><time>2026-04-03T16:16:38.903Z</time></trkpt><trkpt lat="43.773465" lon="11.241145"><ele>51.0</ele><time>2026-04-03T16:16:41.904Z</time></trkpt><trkpt lat="43.773435" lon="11.2412283"><ele>51.0</ele><time>2026-04-03T16:16:43.903Z</time></trkpt><trkpt lat="43.773405" lon="11.2413183"><ele>51.0</ele><time>2026-04-03T16:16:45.903Z</time></trkpt><trkpt lat="43.7733767" lon="11.2414117"><ele>49.599999999999994</ele><time>2026-04-03T16:16:47.903Z</time></trkpt><trkpt lat="43.77334" lon="11.2415167"><ele>48.2</ele><time>2026-04-03T16:16:49.903Z</time></trkpt><trkpt lat="43.7733017" lon="11.2416217"><ele>46.8</ele><time>2026-04-03T16:16:51.903Z</time></trkpt><trkpt lat="43.7732617" lon="11.2417333"><ele>45.400000000000006</ele><time>2026-04-03T16:16:53.903Z</time></trkpt><trkpt lat="43.7732067" lon="11.2418583"><ele>44.0</ele><time>2026-04-03T16:16:55.903Z</time></trkpt><trkpt lat="43.773165" lon="11.24198"><ele>44.0</ele><time>2026-04-03T16:16:57.903Z</time></trkpt><trkpt lat="43.7731283" lon="11.2421033"><ele>44.0</ele><time>2026-04-03T16:16:59.903Z</time></trkpt><trkpt lat="43.7730833" lon="11.2422317"><ele>44.0</ele><time>2026-04-03T16:17:01.903Z</time></trkpt><trkpt lat="43.773035" lon="11.242355"><ele>44.0</ele><time>2026-04-03T16:17:03.903Z</time></trkpt><trkpt lat="43.7729917" lon="11.2424833"><ele>44.0</ele><time>2026-04-03T16:17:05.903Z</time></trkpt><trkpt lat="43.7729417" lon="11.2426133"><ele>45.166666666666664</ele><time>2026-04-03T16:17:07.903Z</time></trkpt><trkpt lat="43.7728967" lon="11.2427333"><ele>46.33333333333333</ele><time>2026-04-03T16:17:09.903Z</time></trkpt><trkpt lat="43.7728517" lon="11.24285"><ele>47.5</ele><time>2026-04-03T16:17:11.903Z</time></trkpt><trkpt lat="43.7728117" lon="11.2429567"><ele>48.666666666666664</ele><time>2026-04-03T16:17:13.903Z</time></trkpt><trkpt lat="43.772775" lon="11.2430617"><ele>49.833333333333336</ele><time>2026-04-03T16:17:15.903Z</time></trkpt><trkpt lat="43.77274" lon="11.2431583"><ele>51.0</ele><time>2026-04-03T16:17:17.903Z</time></trkpt><trkpt lat="43.7727083" lon="11.243245"><ele>50.42857142857143</ele><time>2026-04-03T16:17:19.904Z</time></trkpt><trkpt lat="43.7726683" lon="11.24335"><ele>49.85714285714286</ele><time>2026-04-03T16:17:22.903Z</time></trkpt><trkpt lat="43.772635" lon="11.2434367"><ele>49.285714285714285</ele><time>2026-04-03T16:17:26.903Z</time></trkpt><trkpt lat="43.7726033" lon="11.243535"><ele>48.714285714285715</ele><time>2026-04-03T16:17:36.904Z</time></trkpt><trkpt lat="43.77256" lon="11.243605"><ele>48.14285714285714</ele><time>2026-04-03T16:17:41.904Z</time></trkpt><trkpt lat="43.7725317" lon="11.24369"><ele>47.57142857142857</ele><time>2026-04-03T16:17:44.903Z</time></trkpt><trkpt lat="43.7724983" lon="11.24379"><ele>47.0</ele><time>2026-04-03T16:17:46.903Z</time></trkpt><trkpt lat="43.7724633" lon="11.2439"><ele>48.6</ele><time>2026-04-03T16:17:48.904Z</time></trkpt><trkpt lat="43.7724267" lon="11.2440033"><ele>50.2</ele><time>2026-04-03T16:17:50.903Z</time></trkpt><trkpt lat="43.7723867" lon="11.2441117"><ele>51.8</ele><time>2026-04-03T16:17:52.903Z</time></trkpt><trkpt lat="43.772345" lon="11.2442267"><ele>53.4</ele><time>2026-04-03T16:17:54.904Z</time></trkpt><trkpt lat="43.7723017" lon="11.2443433"><ele>55.0</ele><time>2026-04-03T16:17:56.903Z</time></trkpt><trkpt lat="43.7722517" lon="11.2444617"><ele>55.0</ele><time>2026-04-03T16:17:58.903Z</time></trkpt><trkpt lat="43.7721983" lon="11.24458"><ele>55.0</ele><time>2026-04-03T16:18:00.904Z</time></trkpt><trkpt lat="43.7721433" lon="11.2447033"><ele>55.0</ele><time>2026-04-03T16:18:02.903Z</time></trkpt><trkpt lat="43.7720917" lon="11.2448233"><ele>55.0</ele><time>2026-04-03T16:18:04.903Z</time></trkpt><trkpt lat="43.77205" lon="11.24495"><ele>55.0</ele><time>2026-04-03T16:18:06.904Z</time></trkpt><trkpt lat="43.7719967" lon="11.2450667"><ele>55.0</ele><time>2026-04-03T16:18:08.903Z</time></trkpt><trkpt lat="43.7719417" lon="11.24517"><ele>55.0</ele><time>2026-04-03T16:18:10.903Z</time></trkpt><trkpt lat="43.7718867" lon="11.2452817"><ele>55.0</ele><time>2026-04-03T16:18:12.903Z</time></trkpt><trkpt lat="43.7718267" lon="11.2453917"><ele>55.0</ele><time>2026-04-03T16:18:14.902Z</time></trkpt><trkpt lat="43.77178" lon="11.24551"><ele>55.0</ele><time>2026-04-03T16:18:16.902Z</time></trkpt><trkpt lat="43.77173" lon="11.2456267"><ele>56.8</ele><time>2026-04-03T16:18:18.902Z</time></trkpt><trkpt lat="43.7716883" lon="11.2457467"><ele>58.6</ele><time>2026-04-03T16:18:20.902Z</time></trkpt><trkpt lat="43.7716383" lon="11.2458683"><ele>60.400000000000006</ele><time>2026-04-03T16:18:22.902Z</time></trkpt><trkpt lat="43.7715933" lon="11.245985"><ele>62.2</ele><time>2026-04-03T16:18:24.903Z</time></trkpt><trkpt lat="43.7715433" lon="11.2461017"><ele>64.0</ele><time>2026-04-03T16:18:26.902Z</time></trkpt><trkpt lat="43.7714933" lon="11.2462217"><ele>64.0</ele><time>2026-04-03T16:18:28.903Z</time></trkpt><trkpt lat="43.7714417" lon="11.24634"><ele>64.0</ele><time>2026-04-03T16:18:30.902Z</time></trkpt><trkpt lat="43.7714" lon="11.2464683"><ele>64.0</ele><time>2026-04-03T16:18:32.902Z</time></trkpt><trkpt lat="43.7713567" lon="11.246585"><ele>64.0</ele><time>2026-04-03T16:18:34.903Z</time></trkpt><trkpt lat="43.7713167" lon="11.2467033"><ele>64.0</ele><time>2026-04-03T16:18:36.902Z</time></trkpt><trkpt lat="43.7712633" lon="11.246815"><ele>62.6</ele><time>2026-04-03T16:18:38.903Z</time></trkpt><trkpt lat="43.771215" lon="11.2469317"><ele>61.2</ele><time>2026-04-03T16:18:40.902Z</time></trkpt><trkpt lat="43.7711617" lon="11.2470417"><ele>59.800000000000004</ele><time>2026-04-03T16:18:42.902Z</time></trkpt><trkpt lat="43.7711083" lon="11.2471417"><ele>58.400000000000006</ele><time>2026-04-03T16:18:44.902Z</time></trkpt><trkpt lat="43.7710533" lon="11.2472483"><ele>57.0</ele><time>2026-04-03T16:18:46.902Z</time></trkpt><trkpt lat="43.771005" lon="11.24734"><ele>56.0</ele><time>2026-04-03T16:18:48.902Z</time></trkpt><trkpt lat="43.7709583" lon="11.2474167"><ele>55.0</ele><time>2026-04-03T16:18:50.902Z</time></trkpt><trkpt lat="43.770915" lon="11.247525"><ele>54.0</ele><time>2026-04-03T16:18:53.902Z</time></trkpt><trkpt lat="43.770885" lon="11.2476017"><ele>53.0</ele><time>2026-04-03T16:18:58.903Z</time></trkpt><trkpt lat="43.7708983" lon="11.2476917"><ele>52.0</ele><time>2026-04-03T16:19:02.902Z</time></trkpt><trkpt lat="43.7708867" lon="11.2477967"><ele>51.0</ele><time>2026-04-03T16:19:05.902Z</time></trkpt><trkpt lat="43.7709167" lon="11.2479133"><ele>51.0</ele><time>2026-04-03T16:19:09.902Z</time></trkpt><trkpt lat="43.7709683" lon="11.2480033"><ele>51.0</ele><time>2026-04-03T16:19:12.902Z</time></trkpt><trkpt lat="43.7709933" lon="11.2481067"><ele>51.0</ele><time>2026-04-03T16:19:15.902Z</time></trkpt><trkpt lat="43.7709867" lon="11.2482017"><ele>51.0</ele><time>2026-04-03T16:19:17.902Z</time></trkpt><trkpt lat="43.7709733" lon="11.2483033"><ele>51.0</ele><time>2026-04-03T16:19:20.902Z</time></trkpt><trkpt lat="43.7709917" lon="11.248425"><ele>51.0</ele><time>2026-04-03T16:19:22.902Z</time></trkpt><trkpt lat="43.7710117" lon="11.2485183"><ele>52.0</ele><time>2026-04-03T16:19:24.903Z</time></trkpt><trkpt lat="43.77106" lon="11.2485883"><ele>53.0</ele><time>2026-04-03T16:19:27.903Z</time></trkpt><trkpt lat="43.7711117" lon="11.2486783"><ele>54.0</ele><time>2026-04-03T16:19:30.902Z</time></trkpt><trkpt lat="43.7711567" lon="11.2487933"><ele>55.0</ele><time>2026-04-03T16:19:33.902Z</time></trkpt><trkpt lat="43.7711667" lon="11.2489067"><ele>56.0</ele><time>2026-04-03T16:19:36.902Z</time></trkpt><trkpt lat="43.7711783" lon="11.248995"><ele>57.0</ele><time>2026-04-03T16:19:38.902Z</time></trkpt><trkpt lat="43.771205" lon="11.2490833"><ele>57.166666666666664</ele><time>2026-04-03T16:19:40.902Z</time></trkpt><trkpt lat="43.7711933" lon="11.2491733"><ele>57.33333333333333</ele><time>2026-04-03T16:19:42.902Z</time></trkpt><trkpt lat="43.77117" lon="11.2492633"><ele>57.5</ele><time>2026-04-03T16:19:43.902Z</time></trkpt><trkpt lat="43.7711133" lon="11.2494167"><ele>57.666666666666664</ele><time>2026-04-03T16:19:45.902Z</time></trkpt><trkpt lat="43.77109" lon="11.2495083"><ele>57.83333333333333</ele><time>2026-04-03T16:19:46.902Z</time></trkpt><trkpt lat="43.771045" lon="11.2496483"><ele>58.0</ele><time>2026-04-03T16:19:48.902Z</time></trkpt><trkpt lat="43.77105" lon="11.2497533"><ele>57.8</ele><time>2026-04-03T16:19:50.902Z</time></trkpt><trkpt lat="43.77105" lon="11.2498583"><ele>57.599999999999994</ele><time>2026-04-03T16:19:52.903Z</time></trkpt><trkpt lat="43.7710633" lon="11.249955"><ele>57.400000000000006</ele><time>2026-04-03T16:19:54.902Z</time></trkpt><trkpt lat="43.7711467" lon="11.250055"><ele>57.2</ele><time>2026-04-03T16:19:56.903Z</time></trkpt><trkpt lat="43.7712233" lon="11.2501533"><ele>57.0</ele><time>2026-04-03T16:19:58.902Z</time></trkpt><trkpt lat="43.7712683" lon="11.2502667"><ele>57.0</ele><time>2026-04-03T16:20:00.902Z</time></trkpt><trkpt lat="43.7712883" lon="11.2503683"><ele>57.0</ele><time>2026-04-03T16:20:02.902Z</time></trkpt><trkpt lat="43.7712917" lon="11.2504817"><ele>57.0</ele><time>2026-04-03T16:20:05.902Z</time></trkpt><trkpt lat="43.7712517" lon="11.2506117"><ele>57.0</ele><time>2026-04-03T16:20:09.903Z</time></trkpt><trkpt lat="43.7712683" lon="11.2507283"><ele>57.0</ele><time>2026-04-03T16:20:11.902Z</time></trkpt><trkpt lat="43.7713" lon="11.2508317"><ele>57.0</ele><time>2026-04-03T16:20:13.903Z</time></trkpt><trkpt lat="43.77132" lon="11.250925"><ele>58.0</ele><time>2026-04-03T16:20:15.902Z</time></trkpt><trkpt lat="43.7713933" lon="11.2510267"><ele>59.0</ele><time>2026-04-03T16:20:17.903Z</time></trkpt><trkpt lat="43.771415" lon="11.25113"><ele>60.0</ele><time>2026-04-03T16:20:20.902Z</time></trkpt><trkpt lat="43.7713833" lon="11.25123"><ele>61.0</ele><time>2026-04-03T16:20:23.903Z</time></trkpt><trkpt lat="43.77142" lon="11.2513117"><ele>62.0</ele><time>2026-04-03T16:20:28.902Z</time></trkpt><trkpt lat="43.7714417" lon="11.2514017"><ele>63.0</ele><time>2026-04-03T16:20:30.902Z</time></trkpt><trkpt lat="43.7714717" lon="11.25151"><ele>63.333333333333336</ele><time>2026-04-03T16:20:33.902Z</time></trkpt><trkpt lat="43.7714467" lon="11.2516067"><ele>63.66666666666667</ele><time>2026-04-03T16:20:36.902Z</time></trkpt><trkpt lat="43.771425" lon="11.2516933"><ele>64.0</ele><time>2026-04-03T16:20:38.902Z</time></trkpt><trkpt lat="43.7714" lon="11.251805"><ele>64.33333333333334</ele><time>2026-04-03T16:20:40.902Z</time></trkpt><trkpt lat="43.77135" lon="11.2519367"><ele>64.66666666666667</ele><time>2026-04-03T16:20:42.902Z</time></trkpt><trkpt lat="43.7713167" lon="11.2520617"><ele>65.0</ele><time>2026-04-03T16:20:44.902Z</time></trkpt><trkpt lat="43.7713317" lon="11.25216"><ele>65.0</ele><time>2026-04-03T16:20:46.903Z</time></trkpt><trkpt lat="43.771375" lon="11.2522867"><ele>65.0</ele><time>2026-04-03T16:20:48.903Z</time></trkpt><trkpt lat="43.7714" lon="11.2523817"><ele>65.0</ele><time>2026-04-03T16:20:50.903Z</time></trkpt><trkpt lat="43.7714133" lon="11.252475"><ele>65.0</ele><time>2026-04-03T16:20:52.903Z</time></trkpt><trkpt lat="43.7714233" lon="11.2525833"><ele>65.0</ele><time>2026-04-03T16:20:54.902Z</time></trkpt><trkpt lat="43.7714417" lon="11.2527083"><ele>65.0</ele><time>2026-04-03T16:20:57.903Z</time></trkpt><trkpt lat="43.7714567" lon="11.2528033"><ele>64.85714285714286</ele><time>2026-04-03T16:20:59.902Z</time></trkpt><trkpt lat="43.771455" lon="11.2528983"><ele>64.71428571428572</ele><time>2026-04-03T16:21:01.903Z</time></trkpt><trkpt lat="43.771465" lon="11.2529967"><ele>64.57142857142857</ele><time>2026-04-03T16:21:03.902Z</time></trkpt><trkpt lat="43.7714717" lon="11.2531"><ele>64.42857142857143</ele><time>2026-04-03T16:21:05.902Z</time></trkpt><trkpt lat="43.771465" lon="11.2532267"><ele>64.28571428571428</ele><time>2026-04-03T16:21:08.902Z</time></trkpt><trkpt lat="43.7714667" lon="11.2533183"><ele>64.14285714285714</ele><time>2026-04-03T16:21:10.903Z</time></trkpt><trkpt lat="43.7714683" lon="11.2534183"><ele>64.0</ele><time>2026-04-03T16:21:12.902Z</time></trkpt><trkpt lat="43.77149" lon="11.2535317"><ele>63.99999999999999</ele><time>2026-04-03T16:21:14.902Z</time></trkpt><trkpt lat="43.7715167" lon="11.2536233"><ele>64.0</ele><time>2026-04-03T16:21:16.902Z</time></trkpt><trkpt lat="43.7715633" lon="11.2537183"><ele>64.0</ele><time>2026-04-03T16:21:20.903Z</time></trkpt><trkpt lat="43.7716333" lon="11.25378"><ele>64.0</ele><time>2026-04-03T16:21:23.902Z</time></trkpt><trkpt lat="43.77169" lon="11.25387"><ele>63.99999999999999</ele><time>2026-04-03T16:21:26.902Z</time></trkpt><trkpt lat="43.7717033" lon="11.25396"><ele>64.0</ele><time>2026-04-03T16:21:29.902Z</time></trkpt><trkpt lat="43.771705" lon="11.2540483"><ele>63.99999999999999</ele><time>2026-04-03T16:21:31.902Z</time></trkpt><trkpt lat="43.7717067" lon="11.2541733"><ele>64.0</ele><time>2026-04-03T16:21:34.902Z</time></trkpt><trkpt lat="43.77172" lon="11.2542933"><ele>64.0</ele><time>2026-04-03T16:21:37.902Z</time></trkpt><trkpt lat="43.77176" lon="11.254365"><ele>64.0</ele><time>2026-04-03T16:21:40.902Z</time></trkpt><trkpt lat="43.7718233" lon="11.254425"><ele>63.99999999999999</ele><time>2026-04-03T16:21:43.901Z</time></trkpt><trkpt lat="43.7718867" lon="11.2544517"><ele>64.0</ele><time>2026-04-03T16:21:46.901Z</time></trkpt><trkpt lat="43.7719617" lon="11.2544467"><ele>63.857142857142854</ele><time>2026-04-03T16:21:49.901Z</time></trkpt><trkpt lat="43.7720383" lon="11.254455"><ele>63.71428571428571</ele><time>2026-04-03T16:21:52.901Z</time></trkpt><trkpt lat="43.7721133" lon="11.254435"><ele>63.57142857142857</ele><time>2026-04-03T16:21:55.902Z</time></trkpt><trkpt lat="43.77214" lon="11.254525"><ele>63.42857142857143</ele><time>2026-04-03T16:22:01.902Z</time></trkpt><trkpt lat="43.7721333" lon="11.2546233"><ele>63.285714285714285</ele><time>2026-04-03T16:22:03.901Z</time></trkpt><trkpt lat="43.7721333" lon="11.2547117"><ele>63.14285714285714</ele><time>2026-04-03T16:22:05.902Z</time></trkpt><trkpt lat="43.772155" lon="11.2548233"><ele>63.0</ele><time>2026-04-03T16:22:08.901Z</time></trkpt><trkpt lat="43.7721567" lon="11.2549117"><ele>63.333333333333336</ele><time>2026-04-03T16:22:11.902Z</time></trkpt><trkpt lat="43.772145" lon="11.25502"><ele>63.66666666666667</ele><time>2026-04-03T16:22:14.902Z</time></trkpt><trkpt lat="43.7721317" lon="11.2551117"><ele>64.0</ele><time>2026-04-03T16:22:17.901Z</time></trkpt><trkpt lat="43.772115" lon="11.2552017"><ele>64.33333333333334</ele><time>2026-04-03T16:22:20.901Z</time></trkpt><trkpt lat="43.77211" lon="11.2553"><ele>64.66666666666667</ele><time>2026-04-03T16:22:24.901Z</time></trkpt><trkpt lat="43.77209" lon="11.2554217"><ele>65.0</ele><time>2026-04-03T16:22:28.901Z</time></trkpt><trkpt lat="43.7721117" lon="11.25554"><ele>66.0</ele><time>2026-04-03T16:22:30.902Z</time></trkpt><trkpt lat="43.7721" lon="11.2556417"><ele>67.0</ele><time>2026-04-03T16:22:32.901Z</time></trkpt><trkpt lat="43.7721" lon="11.255735"><ele>68.0</ele><time>2026-04-03T16:22:34.901Z</time></trkpt><trkpt lat="43.7720833" lon="11.2558267"><ele>69.0</ele><time>2026-04-03T16:22:36.901Z</time></trkpt><trkpt lat="43.7720333" lon="11.2559567"><ele>70.0</ele><time>2026-04-03T16:22:38.902Z</time></trkpt><trkpt lat="43.77203" lon="11.2560517"><ele>71.0</ele><time>2026-04-03T16:22:40.902Z</time></trkpt><trkpt lat="43.7720167" lon="11.2561617"><ele>71.0</ele><time>2026-04-03T16:22:42.901Z</time></trkpt><trkpt lat="43.772025" lon="11.256255"><ele>71.0</ele><time>2026-04-03T16:22:44.901Z</time></trkpt><trkpt lat="43.772095" lon="11.2563567"><ele>71.0</ele><time>2026-04-03T16:22:46.902Z</time></trkpt><trkpt lat="43.7721733" lon="11.2564583"><ele>71.0</ele><time>2026-04-03T16:22:48.901Z</time></trkpt><trkpt lat="43.7722133" lon="11.256545"><ele>71.0</ele><time>2026-04-03T16:22:50.901Z</time></trkpt><trkpt lat="43.7722367" lon="11.256635"><ele>71.0</ele><time>2026-04-03T16:22:55.901Z</time></trkpt><trkpt lat="43.7722433" lon="11.2567233"><ele>70.5</ele><time>2026-04-03T16:22:59.901Z</time></trkpt><trkpt lat="43.772305" lon="11.256815"><ele>70.0</ele><time>2026-04-03T16:23:03.901Z</time></trkpt><trkpt lat="43.77237" lon="11.2568483"><ele>69.5</ele><time>2026-04-03T16:23:05.901Z</time></trkpt><trkpt lat="43.7724783" lon="11.256865"><ele>69.0</ele><time>2026-04-03T16:23:07.901Z</time></trkpt><trkpt lat="43.772575" lon="11.256875"><ele>68.5</ele><time>2026-04-03T16:23:09.901Z</time></trkpt><trkpt lat="43.7726183" lon="11.2569733"><ele>68.0</ele><time>2026-04-03T16:23:13.901Z</time></trkpt><trkpt lat="43.7726283" lon="11.2570683"><ele>68.0</ele><time>2026-04-03T16:23:15.901Z</time></trkpt><trkpt lat="43.77265" lon="11.257175"><ele>68.0</ele><time>2026-04-03T16:23:17.902Z</time></trkpt><trkpt lat="43.77267" lon="11.2572833"><ele>68.0</ele><time>2026-04-03T16:23:19.901Z</time></trkpt><trkpt lat="43.7726983" lon="11.2573783"><ele>68.0</ele><time>2026-04-03T16:23:21.901Z</time></trkpt><trkpt lat="43.7727517" lon="11.2574583"><ele>68.0</ele><time>2026-04-03T16:23:23.901Z</time></trkpt><trkpt lat="43.7728217" lon="11.2575133"><ele>68.0</ele><time>2026-04-03T16:23:25.902Z</time></trkpt><trkpt lat="43.7729033" lon="11.257585"><ele>67.83333333333334</ele><time>2026-04-03T16:23:27.901Z</time></trkpt><trkpt lat="43.7729767" lon="11.2576433"><ele>67.66666666666667</ele><time>2026-04-03T16:23:29.901Z</time></trkpt><trkpt lat="43.77305" lon="11.2576667"><ele>67.5</ele><time>2026-04-03T16:23:31.901Z</time></trkpt><trkpt lat="43.77313" lon="11.25765"><ele>67.33333333333333</ele><time>2026-04-03T16:23:33.901Z</time></trkpt><trkpt lat="43.7732017" lon="11.2576233"><ele>67.16666666666666</ele><time>2026-04-03T16:23:35.902Z</time></trkpt><trkpt lat="43.7732717" lon="11.257565"><ele>67.0</ele><time>2026-04-03T16:23:37.901Z</time></trkpt><trkpt lat="43.7733283" lon="11.257475"><ele>67.0</ele><time>2026-04-03T16:23:39.901Z</time></trkpt><trkpt lat="43.773375" lon="11.257415"><ele>67.0</ele><time>2026-04-03T16:23:41.901Z</time></trkpt><trkpt lat="43.7734367" lon="11.257335"><ele>67.0</ele><time>2026-04-03T16:23:44.902Z</time></trkpt><trkpt lat="43.7734867" lon="11.2572467"><ele>67.0</ele><time>2026-04-03T16:23:47.901Z</time></trkpt><trkpt lat="43.7735517" lon="11.2572067"><ele>67.0</ele><time>2026-04-03T16:23:56.901Z</time></trkpt><trkpt lat="43.773625" lon="11.25726"><ele>67.0</ele><time>2026-04-03T16:24:03.901Z</time></trkpt><trkpt lat="43.7736683" lon="11.257335"><ele>66.0</ele><time>2026-04-03T16:24:05.902Z</time></trkpt><trkpt lat="43.7737167" lon="11.2574283"><ele>65.0</ele><time>2026-04-03T16:24:07.901Z</time></trkpt><trkpt lat="43.7737433" lon="11.2575617"><ele>64.0</ele><time>2026-04-03T16:24:09.901Z</time></trkpt><trkpt lat="43.7737883" lon="11.2576983"><ele>63.0</ele><time>2026-04-03T16:24:11.901Z</time></trkpt><trkpt lat="43.7738417" lon="11.2578283"><ele>62.0</ele><time>2026-04-03T16:24:13.902Z</time></trkpt><trkpt lat="43.7738967" lon="11.2578883"><ele>62.00000000000001</ele><time>2026-04-03T16:24:14.901Z</time></trkpt><trkpt lat="43.77397" lon="11.2579333"><ele>62.0</ele><time>2026-04-03T16:24:16.902Z</time></trkpt><trkpt lat="43.774055" lon="11.25798"><ele>62.0</ele><time>2026-04-03T16:24:18.901Z</time></trkpt><trkpt lat="43.7741167" lon="11.2580167"><ele>62.0</ele><time>2026-04-03T16:24:20.901Z</time></trkpt><trkpt lat="43.7741733" lon="11.258055"><ele>62.00000000000001</ele><time>2026-04-03T16:24:22.901Z</time></trkpt><trkpt lat="43.774265" lon="11.258085"><ele>62.0</ele><time>2026-04-03T16:24:25.901Z</time></trkpt><trkpt lat="43.7743283" lon="11.258135"><ele>61.66666666666667</ele><time>2026-04-03T16:24:27.902Z</time></trkpt><trkpt lat="43.774405" lon="11.2581683"><ele>61.333333333333336</ele><time>2026-04-03T16:24:29.902Z</time></trkpt><trkpt lat="43.7744667" lon="11.2582367"><ele>61.0</ele><time>2026-04-03T16:24:31.901Z</time></trkpt><trkpt lat="43.77452" lon="11.258315"><ele>60.66666666666667</ele><time>2026-04-03T16:24:33.901Z</time></trkpt><trkpt lat="43.77462" lon="11.25839"><ele>60.333333333333336</ele><time>2026-04-03T16:24:35.901Z</time></trkpt><trkpt lat="43.7746933" lon="11.2584767"><ele>60.0</ele><time>2026-04-03T16:24:37.901Z</time></trkpt><trkpt lat="43.7747433" lon="11.2585817"><ele>60.0</ele><time>2026-04-03T16:24:39.901Z</time></trkpt><trkpt lat="43.7748083" lon="11.2586783"><ele>60.0</ele><time>2026-04-03T16:24:41.901Z</time></trkpt><trkpt lat="43.774865" lon="11.25877"><ele>60.0</ele><time>2026-04-03T16:24:43.901Z</time></trkpt><trkpt lat="43.7749217" lon="11.2588667"><ele>60.0</ele><time>2026-04-03T16:24:45.902Z</time></trkpt><trkpt lat="43.7749833" lon="11.2589483"><ele>60.0</ele><time>2026-04-03T16:24:47.902Z</time></trkpt><trkpt lat="43.7750617" lon="11.2590067"><ele>60.0</ele><time>2026-04-03T16:24:50.901Z</time></trkpt><trkpt lat="43.775115" lon="11.2590733"><ele>60.0</ele><time>2026-04-03T16:24:53.901Z</time></trkpt><trkpt lat="43.7751767" lon="11.25913"><ele>60.0</ele><time>2026-04-03T16:24:55.902Z</time></trkpt><trkpt lat="43.7752283" lon="11.2592017"><ele>60.0</ele><time>2026-04-03T16:24:57.901Z</time></trkpt><trkpt lat="43.7752883" lon="11.2592617"><ele>60.0</ele><time>2026-04-03T16:24:58.902Z</time></trkpt><trkpt lat="43.77535" lon="11.2593217"><ele>60.0</ele><time>2026-04-03T16:25:00.901Z</time></trkpt><trkpt lat="43.7754183" lon="11.259365"><ele>60.0</ele><time>2026-04-03T16:25:02.902Z</time></trkpt><trkpt lat="43.7754917" lon="11.25943"><ele>60.0</ele><time>2026-04-03T16:25:05.9Z</time></trkpt><trkpt lat="43.7755517" lon="11.25947"><ele>60.0</ele><time>2026-04-03T16:25:07.9Z</time></trkpt><trkpt lat="43.7756017" lon="11.25957"><ele>60.0</ele><time>2026-04-03T16:25:10.9Z</time></trkpt><trkpt lat="43.7756217" lon="11.2596767"><ele>60.0</ele><time>2026-04-03T16:25:13.9Z</time></trkpt><trkpt lat="43.7755967" lon="11.259775"><ele>60.0</ele><time>2026-04-03T16:25:18.9Z</time></trkpt><trkpt lat="43.77552" lon="11.2597867"><ele>60.0</ele><time>2026-04-03T16:25:20.901Z</time></trkpt><trkpt lat="43.7754933" lon="11.2598933"><ele>60.166666666666664</ele><time>2026-04-03T16:25:22.901Z</time></trkpt><trkpt lat="43.7754583" lon="11.2599767"><ele>60.33333333333333</ele><time>2026-04-03T16:25:24.901Z</time></trkpt><trkpt lat="43.7753883" lon="11.26005"><ele>60.5</ele><time>2026-04-03T16:25:27.901Z</time></trkpt><trkpt lat="43.7753333" lon="11.2601683"><ele>60.666666666666664</ele><time>2026-04-03T16:25:30.9Z</time></trkpt><trkpt lat="43.7752867" lon="11.2602633"><ele>60.83333333333333</ele><time>2026-04-03T16:25:33.901Z</time></trkpt><trkpt lat="43.7752533" lon="11.26034"><ele>61.0</ele><time>2026-04-03T16:25:35.9Z</time></trkpt><trkpt lat="43.775265" lon="11.2604283"><ele>61.0</ele><time>2026-04-03T16:25:36.901Z</time></trkpt><trkpt lat="43.7752617" lon="11.2605633"><ele>60.99999999999999</ele><time>2026-04-03T16:25:38.901Z</time></trkpt><trkpt lat="43.7752333" lon="11.2606767"><ele>60.99999999999999</ele><time>2026-04-03T16:25:40.9Z</time></trkpt><trkpt lat="43.7752" lon="11.260775"><ele>61.0</ele><time>2026-04-03T16:25:42.9Z</time></trkpt><trkpt lat="43.7751567" lon="11.2608783"><ele>61.0</ele><time>2026-04-03T16:25:44.901Z</time></trkpt><trkpt lat="43.7751217" lon="11.2610267"><ele>59.599999999999994</ele><time>2026-04-03T16:25:46.9Z</time></trkpt><trkpt lat="43.77511" lon="11.2611167"><ele>58.199999999999996</ele><time>2026-04-03T16:25:47.9Z</time></trkpt><trkpt lat="43.7750717" lon="11.26124"><ele>56.800000000000004</ele><time>2026-04-03T16:25:49.9Z</time></trkpt><trkpt lat="43.7750183" lon="11.2613567"><ele>55.400000000000006</ele><time>2026-04-03T16:25:51.9Z</time></trkpt><trkpt lat="43.7749433" lon="11.2614667"><ele>54.0</ele><time>2026-04-03T16:25:53.9Z</time></trkpt><trkpt lat="43.7748867" lon="11.2615733"><ele>54.0</ele><time>2026-04-03T16:25:55.9Z</time></trkpt><trkpt lat="43.7748267" lon="11.2616717"><ele>54.0</ele><time>2026-04-03T16:25:57.9Z</time></trkpt><trkpt lat="43.7747717" lon="11.2617783"><ele>54.0</ele><time>2026-04-03T16:25:59.901Z</time></trkpt><trkpt lat="43.774725" lon="11.2618767"><ele>54.0</ele><time>2026-04-03T16:26:01.9Z</time></trkpt><trkpt lat="43.7746683" lon="11.26197"><ele>54.0</ele><time>2026-04-03T16:26:03.9Z</time></trkpt><trkpt lat="43.774625" lon="11.2620533"><ele>54.0</ele><time>2026-04-03T16:26:05.9Z</time></trkpt><trkpt lat="43.77459" lon="11.26213"><ele>54.0</ele><time>2026-04-03T16:26:07.9Z</time></trkpt><trkpt lat="43.7745317" lon="11.26218"><ele>54.0</ele><time>2026-04-03T16:26:10.9Z</time></trkpt><trkpt lat="43.7744583" lon="11.2622683"><ele>54.0</ele><time>2026-04-03T16:26:14.901Z</time></trkpt><trkpt lat="43.7744767" lon="11.262375"><ele>54.0</ele><time>2026-04-03T16:26:20.9Z</time></trkpt><trkpt lat="43.7745317" lon="11.2624467"><ele>54.0</ele><time>2026-04-03T16:26:24.9Z</time></trkpt><trkpt lat="43.7745483" lon="11.2625367"><ele>54.0</ele><time>2026-04-03T16:26:31.901Z</time></trkpt><trkpt lat="43.7746117" lon="11.2625317"><ele>56.0</ele><time>2026-04-03T16:27:42.9Z</time></trkpt></trkseg></trk></gpx>